sensor_id;sensor_type;location;lat;lon;timestamp;pressure;altitude;pressure_sealevel;temperature;humidity
59417;BME280;45222;52.458;20.914;2023-08-07T00:01:30;98978.54;;;15.26;84.02
59417;BME280;45222;52.458;20.914;2023-08-07T00:05:16;98980.71;;;15.22;84.31
59417;BME280;45222;52.458;20.914;2023-08-07T00:09:03;98989.35;;;15.15;84.59
59417;BME280;45222;52.458;20.914;2023-08-07T00:12:49;99002.31;;;15.06;85.22
59417;BME280;45222;52.458;20.914;2023-08-07T00:16:35;99009.97;;;15.01;85.33
59417;BME280;45222;52.458;20.914;2023-08-07T00:20:21;99006.24;;;14.98;85.73
59417;BME280;45222;52.458;20.914;2023-08-07T00:24:08;99002.42;;;14.93;86.15
59417;BME280;45222;52.458;20.914;2023-08-07T00:27:54;99003.36;;;14.86;86.56
59417;BME280;45222;52.458;20.914;2023-08-07T00:31:40;99001.52;;;14.81;87.01
59417;BME280;45222;52.458;20.914;2023-08-07T00:35:27;98998.87;;;14.74;87.73
59417;BME280;45222;52.458;20.914;2023-08-07T00:39:13;99000.08;;;14.68;88.09
59417;BME280;45222;52.458;20.914;2023-08-07T00:42:59;98999.89;;;14.64;88.09
59417;BME280;45222;52.458;20.914;2023-08-07T00:46:45;99000.81;;;14.62;88.73
59417;BME280;45222;52.458;20.914;2023-08-07T00:50:32;98999.02;;;14.60;88.86
59417;BME280;45222;52.458;20.914;2023-08-07T00:54:19;98988.90;;;14.57;88.75
59417;BME280;45222;52.458;20.914;2023-08-07T00:58:05;98986.20;;;14.51;89.26
59417;BME280;45222;52.458;20.914;2023-08-07T01:01:51;98988.06;;;14.44;89.83
59417;BME280;45222;52.458;20.914;2023-08-07T01:05:38;98986.68;;;14.39;89.96
59417;BME280;45222;52.458;20.914;2023-08-07T01:09:24;98977.95;;;14.37;90.37
59417;BME280;45222;52.458;20.914;2023-08-07T01:13:12;98982.95;;;14.35;90.31
59417;BME280;45222;52.458;20.914;2023-08-07T01:17:03;98981.67;;;14.33;90.57
59417;BME280;45222;52.458;20.914;2023-08-07T01:20:51;98980.52;;;14.32;90.40
59417;BME280;45222;52.458;20.914;2023-08-07T01:24:38;98973.09;;;14.31;90.61
59417;BME280;45222;52.458;20.914;2023-08-07T01:28:26;98978.02;;;14.29;90.38
59417;BME280;45222;52.458;20.914;2023-08-07T01:32:13;98978.81;;;14.29;90.89
59417;BME280;45222;52.458;20.914;2023-08-07T01:36:01;98982.90;;;14.29;90.87
59417;BME280;45222;52.458;20.914;2023-08-07T01:39:48;98983.98;;;14.29;91.08
59417;BME280;45222;52.458;20.914;2023-08-07T01:43:35;98989.70;;;14.29;90.29
59417;BME280;45222;52.458;20.914;2023-08-07T01:47:21;99000.51;;;14.30;90.08
59417;BME280;45222;52.458;20.914;2023-08-07T01:51:08;99003.64;;;14.31;90.36
59417;BME280;45222;52.458;20.914;2023-08-07T01:54:54;99002.97;;;14.33;90.56
59417;BME280;45222;52.458;20.914;2023-08-07T01:58:40;99003.02;;;14.34;90.82
59417;BME280;45222;52.458;20.914;2023-08-07T02:02:26;98997.58;;;14.33;90.37
59417;BME280;45222;52.458;20.914;2023-08-07T02:06:13;98992.56;;;14.31;90.27
59417;BME280;45222;52.458;20.914;2023-08-07T02:09:59;98984.22;;;14.31;90.40
59417;BME280;45222;52.458;20.914;2023-08-07T02:13:45;98984.63;;;14.30;90.43
59417;BME280;45222;52.458;20.914;2023-08-07T02:17:31;98985.69;;;14.28;90.27
59417;BME280;45222;52.458;20.914;2023-08-07T02:21:18;98987.37;;;14.25;90.32
59417;BME280;45222;52.458;20.914;2023-08-07T02:25:05;98989.08;;;14.24;90.66
59417;BME280;45222;52.458;20.914;2023-08-07T02:28:51;98996.18;;;14.20;91.23
59417;BME280;45222;52.458;20.914;2023-08-07T02:32:37;99005.11;;;14.16;91.60
59417;BME280;45222;52.458;20.914;2023-08-07T02:36:26;99016.95;;;14.13;90.96
59417;BME280;45222;52.458;20.914;2023-08-07T02:40:12;99012.96;;;14.12;91.62
59417;BME280;45222;52.458;20.914;2023-08-07T02:44:00;99017.62;;;14.10;91.63
59417;BME280;45222;52.458;20.914;2023-08-07T02:47:46;99033.34;;;14.08;91.90
59417;BME280;45222;52.458;20.914;2023-08-07T02:51:32;99034.93;;;14.06;92.11
59417;BME280;45222;52.458;20.914;2023-08-07T02:55:18;99037.33;;;14.05;92.02
59417;BME280;45222;52.458;20.914;2023-08-07T02:59:05;99022.36;;;14.07;92.12
59417;BME280;45222;52.458;20.914;2023-08-07T03:02:51;99022.02;;;14.06;91.80
59417;BME280;45222;52.458;20.914;2023-08-07T03:06:38;99023.96;;;14.02;91.61
59417;BME280;45222;52.458;20.914;2023-08-07T03:10:24;99025.75;;;13.98;91.60
59417;BME280;45222;52.458;20.914;2023-08-07T03:14:10;99034.38;;;13.95;91.60
59417;BME280;45222;52.458;20.914;2023-08-07T03:17:57;99036.52;;;13.97;91.68
59417;BME280;45222;52.458;20.914;2023-08-07T03:21:43;99039.04;;;13.99;91.64
59417;BME280;45222;52.458;20.914;2023-08-07T03:25:30;99041.47;;;14.00;91.83
59417;BME280;45222;52.458;20.914;2023-08-07T03:29:16;99042.46;;;14.01;91.54
59417;BME280;45222;52.458;20.914;2023-08-07T03:33:02;99042.60;;;14.04;91.61
59417;BME280;45222;52.458;20.914;2023-08-07T03:36:49;99048.70;;;14.06;91.63
59417;BME280;45222;52.458;20.914;2023-08-07T03:40:35;99050.23;;;14.06;91.16
59417;BME280;45222;52.458;20.914;2023-08-07T03:44:22;99057.17;;;14.07;90.91
59417;BME280;45222;52.458;20.914;2023-08-07T03:48:12;99068.60;;;14.09;90.57
59417;BME280;45222;52.458;20.914;2023-08-07T03:52:00;99078.27;;;14.11;90.13
59417;BME280;45222;52.458;20.914;2023-08-07T03:55:50;99084.89;;;14.13;90.29
59417;BME280;45222;52.458;20.914;2023-08-07T03:59:36;99091.79;;;14.14;90.61
59417;BME280;45222;52.458;20.914;2023-08-07T04:03:23;99088.98;;;14.12;90.58
59417;BME280;45222;52.458;20.914;2023-08-07T04:07:09;99077.79;;;14.06;90.65
59417;BME280;45222;52.458;20.914;2023-08-07T04:11:01;99069.06;;;13.99;91.14
59417;BME280;45222;52.458;20.914;2023-08-07T04:14:48;99070.80;;;13.93;91.45
59417;BME280;45222;52.458;20.914;2023-08-07T04:18:34;99069.63;;;13.90;91.86
59417;BME280;45222;52.458;20.914;2023-08-07T04:22:20;99072.16;;;13.88;91.71
59417;BME280;45222;52.458;20.914;2023-08-07T04:26:06;99071.03;;;13.87;91.86
59417;BME280;45222;52.458;20.914;2023-08-07T04:29:53;99067.91;;;13.85;92.09
59417;BME280;45222;52.458;20.914;2023-08-07T04:33:39;99070.65;;;13.87;91.91
59417;BME280;45222;52.458;20.914;2023-08-07T04:37:25;99074.98;;;13.88;91.77
59417;BME280;45222;52.458;20.914;2023-08-07T04:41:12;99082.86;;;13.88;92.14
59417;BME280;45222;52.458;20.914;2023-08-07T04:44:58;99090.55;;;13.84;92.12
59417;BME280;45222;52.458;20.914;2023-08-07T04:48:44;99100.55;;;13.81;92.70
59417;BME280;45222;52.458;20.914;2023-08-07T04:52:32;99107.52;;;13.84;92.71
59417;BME280;45222;52.458;20.914;2023-08-07T04:56:18;99114.92;;;13.89;92.69
59417;BME280;45222;52.458;20.914;2023-08-07T05:00:06;99114.70;;;13.94;92.35
59417;BME280;45222;52.458;20.914;2023-08-07T05:03:52;99106.67;;;14.03;92.33
59417;BME280;45222;52.458;20.914;2023-08-07T05:07:39;99116.25;;;14.10;91.80
59417;BME280;45222;52.458;20.914;2023-08-07T05:11:25;99116.23;;;14.15;91.49
59417;BME280;45222;52.458;20.914;2023-08-07T05:15:11;99120.82;;;14.20;91.42
59417;BME280;45222;52.458;20.914;2023-08-07T05:18:58;99122.20;;;14.25;91.29
59417;BME280;45222;52.458;20.914;2023-08-07T05:22:44;99121.27;;;14.27;91.08
59417;BME280;45222;52.458;20.914;2023-08-07T05:26:30;99124.39;;;14.26;90.81
59417;BME280;45222;52.458;20.914;2023-08-07T05:30:17;99130.02;;;14.23;90.66
59417;BME280;45222;52.458;20.914;2023-08-07T05:34:03;99130.92;;;14.20;90.79
59417;BME280;45222;52.458;20.914;2023-08-07T05:37:49;99127.05;;;14.22;90.76
59417;BME280;45222;52.458;20.914;2023-08-07T05:41:36;99126.64;;;14.25;90.55
59417;BME280;45222;52.458;20.914;2023-08-07T05:45:23;99126.13;;;14.33;90.27
59417;BME280;45222;52.458;20.914;2023-08-07T05:49:09;99123.91;;;14.47;89.99
59417;BME280;45222;52.458;20.914;2023-08-07T05:52:56;99124.27;;;14.60;89.54
59417;BME280;45222;52.458;20.914;2023-08-07T05:56:42;99126.55;;;14.67;89.37
59417;BME280;45222;52.458;20.914;2023-08-07T06:00:28;99132.61;;;14.65;89.07
59417;BME280;45222;52.458;20.914;2023-08-07T06:04:15;99130.67;;;14.60;89.36
59417;BME280;45222;52.458;20.914;2023-08-07T06:08:03;99130.64;;;14.56;89.52
59417;BME280;45222;52.458;20.914;2023-08-07T06:11:49;99131.33;;;14.53;89.27
59417;BME280;45222;52.458;20.914;2023-08-07T06:15:36;99129.66;;;14.48;89.18
59417;BME280;45222;52.458;20.914;2023-08-07T06:19:22;99135.68;;;14.45;89.10
59417;BME280;45222;52.458;20.914;2023-08-07T06:23:08;99135.15;;;14.41;89.10
59417;BME280;45222;52.458;20.914;2023-08-07T06:26:54;99137.36;;;14.38;89.18
59417;BME280;45222;52.458;20.914;2023-08-07T06:30:40;99132.28;;;14.37;89.32
59417;BME280;45222;52.458;20.914;2023-08-07T06:34:27;99135.33;;;14.39;89.14
59417;BME280;45222;52.458;20.914;2023-08-07T06:38:13;99136.73;;;14.39;89.21
59417;BME280;45222;52.458;20.914;2023-08-07T06:42:00;99142.05;;;14.40;89.01
59417;BME280;45222;52.458;20.914;2023-08-07T06:45:48;99154.29;;;14.37;89.11
59417;BME280;45222;52.458;20.914;2023-08-07T06:49:35;99157.75;;;14.40;88.99
59417;BME280;45222;52.458;20.914;2023-08-07T06:53:21;99153.79;;;14.49;89.20
59417;BME280;45222;52.458;20.914;2023-08-07T06:57:07;99160.45;;;14.48;89.10
59417;BME280;45222;52.458;20.914;2023-08-07T07:00:53;99165.52;;;14.46;89.18
59417;BME280;45222;52.458;20.914;2023-08-07T07:04:40;99170.16;;;14.52;88.80
59417;BME280;45222;52.458;20.914;2023-08-07T07:08:26;99173.00;;;14.63;88.64
59417;BME280;45222;52.458;20.914;2023-08-07T07:12:12;99173.45;;;14.77;88.90
59417;BME280;45222;52.458;20.914;2023-08-07T07:15:59;99172.21;;;14.90;88.28
59417;BME280;45222;52.458;20.914;2023-08-07T07:19:45;99170.49;;;14.97;87.71
59417;BME280;45222;52.458;20.914;2023-08-07T07:23:32;99175.33;;;14.97;87.46
59417;BME280;45222;52.458;20.914;2023-08-07T07:27:18;99175.80;;;14.96;87.21
59417;BME280;45222;52.458;20.914;2023-08-07T07:31:04;99176.55;;;14.92;87.26
59417;BME280;45222;52.458;20.914;2023-08-07T07:34:53;99175.74;;;14.86;86.65
59417;BME280;45222;52.458;20.914;2023-08-07T07:38:39;99174.27;;;14.84;86.91
59417;BME280;45222;52.458;20.914;2023-08-07T07:42:25;99180.44;;;14.86;86.54
59417;BME280;45222;52.458;20.914;2023-08-07T07:46:11;99187.09;;;14.87;86.66
59417;BME280;45222;52.458;20.914;2023-08-07T07:50:05;99192.34;;;14.91;86.88
59417;BME280;45222;52.458;20.914;2023-08-07T07:53:52;99194.40;;;14.92;86.60
59417;BME280;45222;52.458;20.914;2023-08-07T07:57:39;99202.20;;;14.97;86.31
59417;BME280;45222;52.458;20.914;2023-08-07T08:01:25;99202.13;;;15.02;85.50
59417;BME280;45222;52.458;20.914;2023-08-07T08:05:12;99204.52;;;15.04;85.13
59417;BME280;45222;52.458;20.914;2023-08-07T08:09:00;99208.21;;;15.04;84.65
59417;BME280;45222;52.458;20.914;2023-08-07T08:12:49;99207.70;;;15.06;84.50
59417;BME280;45222;52.458;20.914;2023-08-07T08:16:35;99211.10;;;15.17;84.26
59417;BME280;45222;52.458;20.914;2023-08-07T08:20:21;99214.55;;;15.20;84.02
59417;BME280;45222;52.458;20.914;2023-08-07T08:24:07;99216.90;;;15.24;83.68
59417;BME280;45222;52.458;20.914;2023-08-07T08:27:53;99212.25;;;15.35;82.99
59417;BME280;45222;52.458;20.914;2023-08-07T08:31:40;99218.03;;;15.55;82.11
59417;BME280;45222;52.458;20.914;2023-08-07T08:35:26;99217.52;;;15.69;81.06
59417;BME280;45222;52.458;20.914;2023-08-07T08:39:13;99223.18;;;15.63;80.59
59417;BME280;45222;52.458;20.914;2023-08-07T08:43:02;99224.63;;;15.57;80.67
59417;BME280;45222;52.458;20.914;2023-08-07T08:46:51;99231.23;;;15.49;80.11
59417;BME280;45222;52.458;20.914;2023-08-07T08:50:40;99239.48;;;15.42;80.03
59417;BME280;45222;52.458;20.914;2023-08-07T08:54:27;99228.75;;;15.47;80.43
59417;BME280;45222;52.458;20.914;2023-08-07T08:58:13;99225.85;;;15.63;80.45
59417;BME280;45222;52.458;20.914;2023-08-07T09:01:59;99230.27;;;15.76;79.92
59417;BME280;45222;52.458;20.914;2023-08-07T09:05:46;99238.44;;;15.79;79.08
59417;BME280;45222;52.458;20.914;2023-08-07T09:09:33;99239.80;;;15.80;78.50
59417;BME280;45222;52.458;20.914;2023-08-07T09:13:20;99257.69;;;15.73;78.03
59417;BME280;45222;52.458;20.914;2023-08-07T09:17:08;99269.44;;;15.69;78.03
59417;BME280;45222;52.458;20.914;2023-08-07T09:20:55;99279.59;;;15.72;78.18
59417;BME280;45222;52.458;20.914;2023-08-07T09:24:42;99288.77;;;15.74;78.04
59417;BME280;45222;52.458;20.914;2023-08-07T09:28:29;99304.23;;;15.75;78.31
59417;BME280;45222;52.458;20.914;2023-08-07T09:32:15;99321.20;;;15.74;78.11
59417;BME280;45222;52.458;20.914;2023-08-07T09:36:03;99325.61;;;15.66;78.32
59417;BME280;45222;52.458;20.914;2023-08-07T09:39:50;99332.90;;;15.75;78.50
59417;BME280;45222;52.458;20.914;2023-08-07T09:43:37;99331.04;;;15.89;78.02
59417;BME280;45222;52.458;20.914;2023-08-07T09:47:23;99331.69;;;16.04;77.06
59417;BME280;45222;52.458;20.914;2023-08-07T09:51:10;99327.55;;;16.21;75.60
59417;BME280;45222;52.458;20.914;2023-08-07T09:54:57;99326.52;;;16.43;74.81
59417;BME280;45222;52.458;20.914;2023-08-07T09:58:44;99328.46;;;16.61;74.12
59417;BME280;45222;52.458;20.914;2023-08-07T10:02:32;99333.34;;;16.76;73.49
59417;BME280;45222;52.458;20.914;2023-08-07T10:06:18;99330.46;;;17.08;72.71
59417;BME280;45222;52.458;20.914;2023-08-07T10:10:05;99326.20;;;17.27;71.06
59417;BME280;45222;52.458;20.914;2023-08-07T10:13:52;99321.00;;;17.31;70.43
59417;BME280;45222;52.458;20.914;2023-08-07T10:17:39;99315.81;;;17.41;70.22
59417;BME280;45222;52.458;20.914;2023-08-07T10:21:25;99318.94;;;17.53;69.67
59417;BME280;45222;52.458;20.914;2023-08-07T10:25:12;99318.52;;;17.63;69.31
59417;BME280;45222;52.458;20.914;2023-08-07T10:28:58;99318.88;;;17.71;69.12
59417;BME280;45222;52.458;20.914;2023-08-07T10:32:46;99319.05;;;17.94;68.92
59417;BME280;45222;52.458;20.914;2023-08-07T10:36:33;99313.98;;;18.24;68.35
59417;BME280;45222;52.458;20.914;2023-08-07T10:40:20;99314.46;;;18.44;67.87
59417;BME280;45222;52.458;20.914;2023-08-07T10:44:08;99318.30;;;18.45;67.50
59417;BME280;45222;52.458;20.914;2023-08-07T10:48:06;99320.02;;;18.49;66.41
59417;BME280;45222;52.458;20.914;2023-08-07T10:51:53;99319.16;;;18.54;63.82
59417;BME280;45222;52.458;20.914;2023-08-07T10:55:44;99332.27;;;18.51;63.70
59417;BME280;45222;52.458;20.914;2023-08-07T10:59:31;99340.52;;;18.46;63.46
59417;BME280;45222;52.458;20.914;2023-08-07T11:03:27;99342.89;;;18.60;62.81
59417;BME280;45222;52.458;20.914;2023-08-07T11:07:22;99333.67;;;18.85;62.17
59417;BME280;45222;52.458;20.914;2023-08-07T11:11:08;99326.89;;;19.16;60.73
59417;BME280;45222;52.458;20.914;2023-08-07T11:14:55;99324.27;;;19.19;59.90
59417;BME280;45222;52.458;20.914;2023-08-07T11:18:42;99326.29;;;19.10;59.67
59417;BME280;45222;52.458;20.914;2023-08-07T11:22:28;99334.63;;;19.09;59.02
59417;BME280;45222;52.458;20.914;2023-08-07T11:26:15;99336.85;;;19.16;58.45
59417;BME280;45222;52.458;20.914;2023-08-07T11:30:02;99336.68;;;19.16;58.10
59417;BME280;45222;52.458;20.914;2023-08-07T11:33:51;99330.94;;;19.44;58.25
59417;BME280;45222;52.458;20.914;2023-08-07T11:37:38;99321.91;;;19.94;58.12
59417;BME280;45222;52.458;20.914;2023-08-07T11:41:31;99317.19;;;20.28;57.06
59417;BME280;45222;52.458;20.914;2023-08-07T11:45:17;99321.63;;;20.15;55.45
59417;BME280;45222;52.458;20.914;2023-08-07T11:49:03;99332.17;;;19.69;55.27
59417;BME280;45222;52.458;20.914;2023-08-07T11:52:50;99347.24;;;19.22;56.08
59417;BME280;45222;52.458;20.914;2023-08-07T11:56:36;99347.95;;;18.87;57.55
59417;BME280;45222;52.458;20.914;2023-08-07T12:00:23;99346.51;;;18.58;58.30
59417;BME280;45222;52.458;20.914;2023-08-07T12:04:11;99348.48;;;18.34;58.55
59417;BME280;45222;52.458;20.914;2023-08-07T12:07:58;99362.13;;;18.33;59.45
59417;BME280;45222;52.458;20.914;2023-08-07T12:11:44;99370.44;;;18.43;59.57
59417;BME280;45222;52.458;20.914;2023-08-07T12:15:30;99374.89;;;18.52;59.88
59417;BME280;45222;52.458;20.914;2023-08-07T12:19:17;99384.00;;;18.47;59.67
59417;BME280;45222;52.458;20.914;2023-08-07T12:23:04;99392.95;;;18.27;59.77
59417;BME280;45222;52.458;20.914;2023-08-07T12:26:50;99393.27;;;18.02;60.13
59417;BME280;45222;52.458;20.914;2023-08-07T12:30:36;99398.20;;;17.82;60.82
59417;BME280;45222;52.458;20.914;2023-08-07T12:34:23;99403.83;;;17.68;60.79
59417;BME280;45222;52.458;20.914;2023-08-07T12:38:09;99396.77;;;17.65;60.82
59417;BME280;45222;52.458;20.914;2023-08-07T12:41:56;99409.09;;;17.79;60.84
59417;BME280;45222;52.458;20.914;2023-08-07T12:45:42;99421.48;;;18.08;60.50
59417;BME280;45222;52.458;20.914;2023-08-07T12:49:29;99425.63;;;18.45;60.25
59417;BME280;45222;52.458;20.914;2023-08-07T12:53:15;99434.28;;;18.78;59.73
59417;BME280;45222;52.458;20.914;2023-08-07T12:57:02;99436.67;;;19.00;59.03
59417;BME280;45222;52.458;20.914;2023-08-07T13:00:48;99438.87;;;19.14;58.40
59417;BME280;45222;52.458;20.914;2023-08-07T13:04:34;99435.42;;;19.18;57.64
59417;BME280;45222;52.458;20.914;2023-08-07T13:08:21;99421.48;;;19.31;57.75
59417;BME280;45222;52.458;20.914;2023-08-07T13:12:07;99416.80;;;19.47;57.79
59417;BME280;45222;52.458;20.914;2023-08-07T13:15:53;99411.97;;;19.47;56.79
59417;BME280;45222;52.458;20.914;2023-08-07T13:19:40;99413.16;;;19.46;55.98
59417;BME280;45222;52.458;20.914;2023-08-07T13:23:26;99408.40;;;19.49;55.88
59417;BME280;45222;52.458;20.914;2023-08-07T13:27:12;99409.09;;;19.63;55.77
59417;BME280;45222;52.458;20.914;2023-08-07T13:30:59;99404.54;;;20.06;54.36
59417;BME280;45222;52.458;20.914;2023-08-07T13:34:45;99400.55;;;20.44;53.16
59417;BME280;45222;52.458;20.914;2023-08-07T13:38:31;99390.62;;;20.62;51.20
59417;BME280;45222;52.458;20.914;2023-08-07T13:42:18;99406.08;;;20.42;51.18
59417;BME280;45222;52.458;20.914;2023-08-07T13:46:04;99408.45;;;20.14;52.44
59417;BME280;45222;52.458;20.914;2023-08-07T13:49:51;99414.59;;;19.89;53.29
59417;BME280;45222;52.458;20.914;2023-08-07T13:53:37;99421.09;;;19.59;53.73
59417;BME280;45222;52.458;20.914;2023-08-07T13:57:24;99427.65;;;19.31;54.64
59417;BME280;45222;52.458;20.914;2023-08-07T14:01:10;99447.90;;;19.03;55.57
59417;BME280;45222;52.458;20.914;2023-08-07T14:04:56;99490.63;;;18.68;58.30
59417;BME280;45222;52.458;20.914;2023-08-07T14:08:42;99516.23;;;17.99;60.81
59417;BME280;45222;52.458;20.914;2023-08-07T14:12:29;99511.34;;;17.29;63.14
59417;BME280;45222;52.458;20.914;2023-08-07T14:16:15;99515.85;;;16.73;65.41
59417;BME280;45222;52.458;20.914;2023-08-07T14:20:01;99509.55;;;16.32;66.50
59417;BME280;45222;52.458;20.914;2023-08-07T14:23:49;99510.42;;;16.09;67.28
59417;BME280;45222;52.458;20.914;2023-08-07T14:27:36;99510.20;;;15.97;67.11
59417;BME280;45222;52.458;20.914;2023-08-07T14:31:22;99511.90;;;15.89;68.24
59417;BME280;45222;52.458;20.914;2023-08-07T14:35:09;99514.86;;;15.84;68.24
59417;BME280;45222;52.458;20.914;2023-08-07T14:38:55;99510.31;;;15.82;68.79
59417;BME280;45222;52.458;20.914;2023-08-07T14:42:41;99500.60;;;15.85;69.03
59417;BME280;45222;52.458;20.914;2023-08-07T14:46:27;99495.02;;;15.89;68.82
59417;BME280;45222;52.458;20.914;2023-08-07T14:50:14;99486.89;;;15.99;68.35
59417;BME280;45222;52.458;20.914;2023-08-07T14:54:00;99473.26;;;16.39;69.54
59417;BME280;45222;52.458;20.914;2023-08-07T14:57:47;99453.05;;;16.97;69.12
59417;BME280;45222;52.458;20.914;2023-08-07T15:01:33;99439.16;;;17.38;67.64
59417;BME280;45222;52.458;20.914;2023-08-07T15:05:20;99437.64;;;17.70;66.43
59417;BME280;45222;52.458;20.914;2023-08-07T15:09:06;99435.34;;;17.83;65.72
59417;BME280;45222;52.458;20.914;2023-08-07T15:12:52;99433.84;;;17.89;64.62
59417;BME280;45222;52.458;20.914;2023-08-07T15:16:39;99436.96;;;17.93;64.49
59417;BME280;45222;52.458;20.914;2023-08-07T15:20:26;99435.33;;;17.93;63.99
59417;BME280;45222;52.458;20.914;2023-08-07T15:24:12;99435.48;;;17.93;63.81
59417;BME280;45222;52.458;20.914;2023-08-07T15:27:58;99435.80;;;17.93;63.71
59417;BME280;45222;52.458;20.914;2023-08-07T15:31:46;99429.83;;;17.98;63.83
59417;BME280;45222;52.458;20.914;2023-08-07T15:35:32;99437.05;;;18.05;63.67
59417;BME280;45222;52.458;20.914;2023-08-07T15:39:18;99443.05;;;18.10;63.53
59417;BME280;45222;52.458;20.914;2023-08-07T15:43:05;99445.26;;;18.16;63.45
59417;BME280;45222;52.458;20.914;2023-08-07T15:46:51;99452.17;;;18.30;62.81
59417;BME280;45222;52.458;20.914;2023-08-07T15:50:37;99455.77;;;18.51;62.81
59417;BME280;45222;52.458;20.914;2023-08-07T15:54:24;99455.08;;;18.66;61.09
59417;BME280;45222;52.458;20.914;2023-08-07T15:58:10;99457.38;;;18.72;60.64
59417;BME280;45222;52.458;20.914;2023-08-07T16:01:56;99457.67;;;18.78;60.24
59417;BME280;45222;52.458;20.914;2023-08-07T16:05:42;99455.80;;;18.90;59.90
59417;BME280;45222;52.458;20.914;2023-08-07T16:09:28;99455.30;;;18.97;59.34
59417;BME280;45222;52.458;20.914;2023-08-07T16:13:15;99455.61;;;18.92;58.36
59417;BME280;45222;52.458;20.914;2023-08-07T16:17:01;99458.93;;;18.82;58.23
59417;BME280;45222;52.458;20.914;2023-08-07T16:20:47;99464.96;;;18.79;58.21
59417;BME280;45222;52.458;20.914;2023-08-07T16:24:35;99463.71;;;18.88;58.56
59417;BME280;45222;52.458;20.914;2023-08-07T16:28:21;99466.45;;;18.92;57.47
59417;BME280;45222;52.458;20.914;2023-08-07T16:32:07;99477.58;;;18.88;56.82
59417;BME280;45222;52.458;20.914;2023-08-07T16:35:54;99479.70;;;18.87;56.59
59417;BME280;45222;52.458;20.914;2023-08-07T16:39:40;99477.02;;;18.88;56.60
59417;BME280;45222;52.458;20.914;2023-08-07T16:43:27;99481.80;;;18.91;56.59
59417;BME280;45222;52.458;20.914;2023-08-07T16:47:13;99485.77;;;18.93;56.50
59417;BME280;45222;52.458;20.914;2023-08-07T16:50:59;99493.18;;;18.93;55.57
59417;BME280;45222;52.458;20.914;2023-08-07T16:54:46;99495.34;;;18.83;54.63
59417;BME280;45222;52.458;20.914;2023-08-07T16:58:35;99498.91;;;18.72;54.74
59417;BME280;45222;52.458;20.914;2023-08-07T17:02:21;99498.50;;;18.61;54.21
59417;BME280;45222;52.458;20.914;2023-08-07T17:06:09;99502.67;;;18.54;54.14
59417;BME280;45222;52.458;20.914;2023-08-07T17:09:55;99505.70;;;18.44;55.08
59417;BME280;45222;52.458;20.914;2023-08-07T17:13:42;99512.30;;;18.32;55.61
59417;BME280;45222;52.458;20.914;2023-08-07T17:17:28;99521.59;;;18.19;55.82
59417;BME280;45222;52.458;20.914;2023-08-07T17:21:15;99525.20;;;18.07;56.50
59417;BME280;45222;52.458;20.914;2023-08-07T17:25:01;99529.95;;;17.97;56.52
59417;BME280;45222;52.458;20.914;2023-08-07T17:28:49;99535.49;;;17.87;56.00
59417;BME280;45222;52.458;20.914;2023-08-07T17:32:35;99540.58;;;17.79;56.31
59417;BME280;45222;52.458;20.914;2023-08-07T17:36:21;99547.16;;;17.70;56.63
59417;BME280;45222;52.458;20.914;2023-08-07T17:40:09;99550.59;;;17.62;56.92
59417;BME280;45222;52.458;20.914;2023-08-07T17:43:56;99558.77;;;17.53;57.06
59417;BME280;45222;52.458;20.914;2023-08-07T17:47:42;99565.73;;;17.45;57.93
59417;BME280;45222;52.458;20.914;2023-08-07T17:51:29;99582.20;;;17.36;58.66
59417;BME280;45222;52.458;20.914;2023-08-07T17:55:15;99596.57;;;17.16;59.71
59417;BME280;45222;52.458;20.914;2023-08-07T17:59:01;99599.88;;;16.92;60.73
59417;BME280;45222;52.458;20.914;2023-08-07T18:02:47;99597.70;;;16.67;61.68
59417;BME280;45222;52.458;20.914;2023-08-07T18:06:34;99595.45;;;16.51;61.94
59417;BME280;45222;52.458;20.914;2023-08-07T18:10:21;99589.31;;;16.39;62.58
59417;BME280;45222;52.458;20.914;2023-08-07T18:14:07;99592.16;;;16.29;63.24
59417;BME280;45222;52.458;20.914;2023-08-07T18:17:53;99588.43;;;16.20;63.11
59417;BME280;45222;52.458;20.914;2023-08-07T18:21:39;99580.91;;;16.11;63.40
59417;BME280;45222;52.458;20.914;2023-08-07T18:25:25;99585.58;;;16.05;63.72
59417;BME280;45222;52.458;20.914;2023-08-07T18:29:12;99596.30;;;15.99;63.79
59417;BME280;45222;52.458;20.914;2023-08-07T18:32:58;99605.11;;;15.94;64.10
59417;BME280;45222;52.458;20.914;2023-08-07T18:36:44;99611.98;;;15.91;64.25
59417;BME280;45222;52.458;20.914;2023-08-07T18:40:31;99612.65;;;15.87;63.79
59417;BME280;45222;52.458;20.914;2023-08-07T18:44:19;99616.33;;;15.84;63.94
59417;BME280;45222;52.458;20.914;2023-08-07T18:48:06;99612.73;;;15.81;64.11
59417;BME280;45222;52.458;20.914;2023-08-07T18:51:54;99616.67;;;15.80;64.54
59417;BME280;45222;52.458;20.914;2023-08-07T18:55:40;99618.05;;;15.78;64.36
59417;BME280;45222;52.458;20.914;2023-08-07T18:59:26;99616.45;;;15.76;64.41
59417;BME280;45222;52.458;20.914;2023-08-07T19:03:12;99616.95;;;15.74;64.68
59417;BME280;45222;52.458;20.914;2023-08-07T19:06:59;99624.66;;;15.72;64.75
59417;BME280;45222;52.458;20.914;2023-08-07T19:10:45;99628.80;;;15.69;65.20
59417;BME280;45222;52.458;20.914;2023-08-07T19:14:32;99623.10;;;15.69;65.50
59417;BME280;45222;52.458;20.914;2023-08-07T19:18:19;99626.39;;;15.70;65.88
59417;BME280;45222;52.458;20.914;2023-08-07T19:22:05;99630.42;;;15.74;66.29
59417;BME280;45222;52.458;20.914;2023-08-07T19:25:53;99629.92;;;15.80;66.69
59417;BME280;45222;52.458;20.914;2023-08-07T19:29:39;99638.23;;;15.86;66.46
59417;BME280;45222;52.458;20.914;2023-08-07T19:33:25;99637.80;;;15.84;66.17
59417;BME280;45222;52.458;20.914;2023-08-07T19:37:12;99634.89;;;15.78;65.48
59417;BME280;45222;52.458;20.914;2023-08-07T19:40:58;99632.70;;;15.68;65.44
59417;BME280;45222;52.458;20.914;2023-08-07T19:44:45;99640.65;;;15.58;65.83